Point Reyes Station, California
Current Conditions -  °F | °C
As of 10:15 AM on Saturday 22 Nov 2014 (Local Time) from KDVO Reporting Station
Clear Clear  
Wind Chill: 66°   Ceiling: Unl
Heat Index: 66°   Visibility: NA
Dew Point: 57°   Wind: 21mph
Humidity: 73%   Direction: 280°W
Pressure: 30.07"   Gusts: 31mph
Location:  38.07°N, 122.81°W
Report Text: KDVO 221815Z AUTO 28018G27KT CLR 19/14 A3007 RMK AO2
Loading
Personal Weather Stations






























Interactive Weather Map New forecast layout! Learn more

10-Day Weather Forecast

Advertisements
Track Severe Weather on mobile